Time;durP1;ratioP1;P1;durP2;ratioP2;P2;SDS_P1;SDS_P2;PMS_P1;PMS_P2;Temp;Humidity;BMP_temperature;BMP_pressure;BME280_temperature;BME280_humidity;BME280_pressure;Samples;Min_cycle;Max_cycle;Signal;HPM_P1;HPM_P2
2022/06/25 00:00:20;;;;;;;39.72;36.83;;;;;;;17.63;100.00;100731.25;5062120;28;20123;-83
2022/06/25 00:02:58;;;;;;;36.70;34.20;;;;;;;17.70;100.00;100729.19;5064748;28;20519;-84
2022/06/25 00:05:32;;;;;;;36.85;33.72;;;;;;;17.72;100.00;100723.56;5058615;28;20076;-83
2022/06/25 00:08:02;;;;;;;37.28;34.75;;;;;;;17.72;100.00;100719.00;5067119;28;20060;-82
2022/06/25 00:10:30;;;;;;;36.88;33.85;;;;;;;17.35;100.00;100716.19;5065754;28;20406;-82
2022/06/25 00:12:56;;;;;;;40.70;37.92;;;;;;;17.38;100.00;100716.47;5065772;28;20060;-82
2022/06/25 00:15:24;;;;;;;39.05;36.35;;;;;;;17.36;100.00;100723.16;5066456;28;20045;-82
2022/06/25 00:17:55;;;;;;;36.88;34.08;;;;;;;17.35;100.00;100722.34;5067931;28;20063;-81
2022/06/25 00:20:24;;;;;;;42.78;39.78;;;;;;;17.31;100.00;100734.66;5067615;28;20045;-83
2022/06/25 00:22:53;;;;;;;45.35;42.22;;;;;;;17.36;100.00;100732.03;5071346;28;20044;-83
2022/06/25 00:25:33;;;;;;;45.13;41.83;;;;;;;17.28;100.00;100729.00;5071179;28;20459;-85
2022/06/25 00:28:00;;;;;;;37.20;33.97;;;;;;;17.28;100.00;100727.13;5069640;28;20044;-82
2022/06/25 00:30:28;;;;;;;40.03;37.10;;;;;;;17.35;100.00;100735.78;5069446;28;20036;-82
2022/06/25 00:35:41;;;;;;;38.33;35.42;;;;;;;17.33;100.00;100724.47;5071328;28;20064;-81
2022/06/25 00:38:08;;;;;;;40.80;37.70;;;;;;;17.47;100.00;100724.09;5073252;28;20106;-81
2022/06/25 00:40:38;;;;;;;40.75;37.40;;;;;;;17.49;100.00;100730.84;5074255;28;20048;-81
2022/06/25 00:43:10;;;;;;;37.85;34.70;;;;;;;17.44;100.00;100724.59;5074147;28;20049;-81
2022/06/25 00:45:37;;;;;;;34.42;31.35;;;;;;;17.39;100.00;100736.88;5074265;28;20050;-82
2022/06/25 00:48:11;;;;;;;35.63;32.70;;;;;;;17.35;100.00;100737.66;5072915;28;20052;-81
2022/06/25 00:50:41;;;;;;;39.35;36.45;;;;;;;17.46;100.00;100723.28;5071585;28;20040;-82
2022/06/25 00:53:16;;;;;;;37.45;34.75;;;;;;;17.32;100.00;100732.78;5070366;28;20091;-82
2022/06/25 00:55:52;;;;;;;36.67;33.97;;;;;;;17.40;100.00;100722.41;5066816;28;20053;-82
2022/06/25 00:58:28;;;;;;;37.20;34.47;;;;;;;17.35;100.00;100716.97;5064480;28;20495;-82
2022/06/25 01:00:56;;;;;;;34.65;32.15;;;;;;;17.45;100.00;100715.47;5066475;28;20048;-82
2022/06/25 01:03:42;;;;;;;37.92;35.03;;;;;;;17.44;100.00;100719.22;5066376;28;20045;-81
2022/06/25 01:06:10;;;;;;;41.03;38.15;;;;;;;17.39;100.00;100709.22;5064448;28;20110;-84
2022/06/25 01:08:37;;;;;;;38.92;36.10;;;;;;;17.35;100.00;100708.94;5064213;28;20058;-83
2022/06/25 01:11:04;;;;;;;38.35;35.50;;;;;;;17.38;100.00;100713.00;5071526;28;20071;-82
2022/06/25 01:13:41;;;;;;;35.22;32.30;;;;;;;17.29;100.00;100715.31;5068224;28;20045;-82
2022/06/25 01:16:15;;;;;;;33.42;30.85;;;;;;;17.22;100.00;100712.00;5065388;28;20055;-82
2022/06/25 01:18:55;;;;;;;41.67;38.35;;;;;;;17.13;100.00;100711.63;5061869;28;20477;-82
2022/06/25 01:21:31;;;;;;;34.95;32.10;;;;;;;17.24;100.00;100720.59;5067603;28;20052;-81
2022/06/25 01:24:04;;;;;;;40.42;37.50;;;;;;;17.23;100.00;100723.53;5068759;28;20417;-81
2022/06/25 01:26:39;;;;;;;40.17;37.47;;;;;;;17.28;100.00;100729.00;5068636;28;20052;-81
2022/06/25 01:29:07;;;;;;;38.30;35.50;;;;;;;17.19;100.00;100723.25;5065993;28;20091;-82
2022/06/25 01:31:34;;;;;;;36.33;33.47;;;;;;;17.23;100.00;100721.66;5068225;28;20469;-82
2022/06/25 01:34:06;;;;;;;34.00;30.85;;;;;;;17.09;100.00;100707.00;5067538;28;20057;-81
2022/06/25 01:36:36;;;;;;;35.35;32.70;;;;;;;17.25;100.00;100721.44;5063690;28;20056;-81
2022/06/25 01:39:07;;;;;;;40.03;36.22;;;;;;;17.01;100.00;100718.19;5070677;28;20408;-82
2022/06/25 01:41:34;;;;;;;32.65;30.02;;;;;;;16.78;100.00;100724.56;5075619;28;20056;-83
2022/06/25 01:44:06;;;;;;;35.42;32.63;;;;;;;16.35;100.00;100736.75;5063698;28;20068;-83
2022/06/25 01:46:35;;;;;;;35.10;32.22;;;;;;;16.61;100.00;100719.19;5063388;28;20056;-82
2022/06/25 01:49:02;;;;;;;34.80;31.80;;;;;;;16.57;100.00;100737.63;5067555;28;20048;-82
2022/06/25 01:51:31;;;;;;;34.22;31.48;;;;;;;16.02;100.00;100741.84;5065274;28;20474;-82
2022/06/25 01:54:04;;;;;;;37.05;34.35;;;;;;;15.68;100.00;100737.47;5068495;28;20127;-82
2022/06/25 01:56:38;;;;;;;46.15;42.70;;;;;;;15.79;100.00;100739.25;5060298;28;20041;-82
2022/06/25 01:59:09;;;;;;;37.30;34.42;;;;;;;16.21;100.00;100739.75;5069986;28;20080;-84
2022/06/25 02:01:36;;;;;;;39.58;36.35;;;;;;;16.45;100.00;100742.28;5152467;22;20431;-82
2022/06/25 02:04:05;;;;;;;34.72;32.22;;;;;;;15.87;100.00;100744.25;5058482;28;20126;-81
2022/06/25 02:06:32;;;;;;;38.90;35.63;;;;;;;15.19;100.00;100743.16;5058307;28;20041;-81
2022/06/25 02:08:59;;;;;;;36.35;33.45;;;;;;;15.18;100.00;100740.72;5056711;28;20063;-81
2022/06/25 02:11:27;;;;;;;39.83;36.50;;;;;;;14.99;100.00;100748.06;5057590;28;20433;-82
2022/06/25 02:13:55;;;;;;;47.05;43.13;;;;;;;15.30;100.00;100744.97;5056356;28;20057;-82
2022/06/25 02:16:22;;;;;;;44.42;41.13;;;;;;;15.73;100.00;100743.75;5057504;28;20045;-81
2022/06/25 02:18:49;;;;;;;39.75;36.78;;;;;;;15.57;100.00;100749.81;5063768;28;20052;-82
2022/06/25 02:21:16;;;;;;;49.17;45.88;;;;;;;15.61;100.00;100753.63;5058787;28;20055;-84
2022/06/25 02:23:42;;;;;;;41.28;37.95;;;;;;;15.56;100.00;100754.34;5056469;28;20542;-82
2022/06/25 02:26:09;;;;;;;35.58;32.78;;;;;;;15.82;100.00;100751.38;5055154;28;20053;-83
2022/06/25 02:28:36;;;;;;;36.05;33.25;;;;;;;15.59;100.00;100750.38;5058397;28;20052;-83
2022/06/25 02:31:04;;;;;;;34.75;31.88;;;;;;;15.85;100.00;100759.72;5065449;28;20056;-80
2022/06/25 02:33:31;;;;;;;31.05;28.65;;;;;;;15.79;100.00;100758.00;5058858;28;20063;-83
2022/06/25 02:35:58;;;;;;;33.00;30.40;;;;;;;15.63;100.00;100766.78;5060814;28;20053;-83
2022/06/25 02:38:26;;;;;;;30.85;28.20;;;;;;;14.99;100.00;100759.56;5059570;28;20044;-83
2022/06/25 02:40:53;;;;;;;31.17;28.52;;;;;;;15.17;100.00;100765.84;5048181;28;20041;-83
2022/06/25 02:43:20;;;;;;;31.88;29.55;;;;;;;15.96;100.00;100772.25;5054914;28;20111;-85
2022/06/25 02:45:46;;;;;;;31.80;29.27;;;;;;;15.89;100.00;100773.47;5056310;28;20052;-84
2022/06/25 02:48:15;;;;;;;31.67;29.38;;;;;;;16.02;100.00;100773.97;5061080;28;20059;-84
2022/06/25 02:50:41;;;;;;;31.02;28.63;;;;;;;15.06;100.00;100776.31;5063820;28;20550;-84
2022/06/25 02:53:08;;;;;;;32.75;30.25;;;;;;;14.80;100.00;100787.50;5059797;28;20053;-84
2022/06/25 03:01:16;;;;;;;30.10;27.80;;;;;;;15.71;100.00;100783.31;5043563;28;20056;-85
2022/06/25 03:03:45;;;;;;;32.08;29.67;;;;;;;15.69;100.00;100789.97;5052732;28;20056;-85
2022/06/25 03:06:12;;;;;;;31.10;28.88;;;;;;;15.91;100.00;100795.47;5059367;28;20048;-84
2022/06/25 03:08:39;;;;;;;34.78;32.25;;;;;;;15.68;100.00;100786.47;5063895;28;20455;-84
2022/06/25 03:11:06;;;;;;;31.77;29.45;;;;;;;15.42;100.00;100784.28;5055653;28;20118;-84
2022/06/25 03:13:36;;;;;;;39.08;36.05;;;;;;;15.89;100.00;100792.22;5060557;28;20041;-84
2022/06/25 03:16:04;;;;;;;35.67;33.00;;;;;;;16.36;100.00;100787.44;5055632;28;20106;-83
2022/06/25 03:18:31;;;;;;;32.10;29.90;;;;;;;16.41;100.00;100790.19;5061918;28;20111;-84
2022/06/25 03:20:59;;;;;;;29.60;27.63;;;;;;;15.92;100.00;100791.75;5061107;28;20053;-84
2022/06/25 03:23:26;;;;;;;30.38;28.38;;;;;;;16.07;100.00;100792.03;5050181;28;20477;-84
2022/06/25 03:25:53;;;;;;;31.13;29.02;;;;;;;16.48;100.00;100785.47;5059317;28;20064;-83
2022/06/25 03:39:05;;;;;;;33.35;31.30;;;;;;;17.00;100.00;100776.38;4707966;27;10001529;-83
2022/06/25 03:41:33;;;;;;;34.28;32.03;;;;;;;16.93;100.00;100786.47;5057686;28;20057;-83
2022/06/25 03:44:00;;;;;;;32.25;29.85;;;;;;;16.68;100.00;100779.66;5041455;28;20056;-81
2022/06/25 03:46:27;;;;;;;34.85;32.25;;;;;;;16.68;100.00;100782.31;5036598;28;20058;-81
2022/06/25 03:48:54;;;;;;;33.10;30.98;;;;;;;16.73;100.00;100776.22;5036237;28;20072;-81
2022/06/25 03:51:20;;;;;;;36.95;34.13;;;;;;;16.45;100.00;100774.44;5035524;28;20402;-81
2022/06/25 03:56:32;;;;;;;28.30;26.30;;;;;;;16.80;100.00;100776.91;5035364;28;20071;-82
2022/06/25 03:58:59;;;;;;;31.08;29.05;;;;;;;17.18;100.00;100784.13;5036788;28;20050;-83
2022/06/25 04:01:27;;;;;;;32.08;29.95;;;;;;;17.25;100.00;100777.81;5046015;28;20060;-81
2022/06/25 04:03:55;;;;;;;39.58;36.97;;;;;;;17.32;100.00;100776.53;5041542;28;20048;-82
2022/06/25 04:06:22;;;;;;;36.72;34.20;;;;;;;17.37;100.00;100786.53;5038542;28;20064;-81
2022/06/25 04:08:48;;;;;;;38.70;35.78;;;;;;;17.41;100.00;100782.28;5039609;28;20452;-81
2022/06/25 04:11:15;;;;;;;33.28;31.17;;;;;;;17.32;100.00;100789.16;5033187;28;20054;-82
2022/06/25 04:13:44;;;;;;;32.80;30.80;;;;;;;17.47;100.00;100792.03;5039438;28;20482;-82
2022/06/25 04:16:10;;;;;;;32.33;30.23;;;;;;;17.52;100.00;100785.91;5038879;28;20111;-83
2022/06/25 04:18:37;;;;;;;33.08;30.88;;;;;;;17.46;100.00;100782.38;5034916;28;20053;-82
2022/06/25 04:21:04;;;;;;;31.98;29.67;;;;;;;17.75;100.00;100785.63;5034422;28;20049;-81
2022/06/25 04:23:31;;;;;;;31.95;29.85;;;;;;;17.78;100.00;100781.66;5036600;28;20053;-82
2022/06/25 04:25:58;;;;;;;30.60;28.65;;;;;;;17.90;100.00;100785.03;5035681;28;20052;-82
2022/06/25 04:31:11;;;;;;;31.55;29.48;;;;;;;18.03;100.00;100789.19;5044480;28;20485;-82
2022/06/25 04:33:37;;;;;;;30.98;29.10;;;;;;;18.18;100.00;100793.91;5043219;28;20063;-80
2022/06/25 04:36:05;;;;;;;30.92;28.60;;;;;;;18.33;100.00;100788.66;5037176;28;20052;-82
2022/06/25 04:38:34;;;;;;;31.02;29.02;;;;;;;18.35;100.00;100791.09;5030032;28;20057;-81
2022/06/25 04:41:00;;;;;;;30.42;28.25;;;;;;;18.51;100.00;100793.66;5026905;28;20556;-81
2022/06/25 04:43:27;;;;;;;30.98;28.60;;;;;;;18.63;100.00;100793.47;5018652;28;20380;-82
2022/06/25 04:45:54;;;;;;;31.73;29.77;;;;;;;18.68;100.00;100790.84;5021379;28;20045;-81
2022/06/25 04:48:22;;;;;;;30.60;28.55;;;;;;;18.86;100.00;100789.66;5019374;28;20049;-81
2022/06/25 04:50:49;;;;;;;31.15;29.08;;;;;;;19.03;100.00;100792.16;5030120;28;20410;-81
2022/06/25 04:53:17;;;;;;;29.60;27.40;;;;;;;19.15;100.00;100794.66;5039118;28;20046;-82
2022/06/25 04:55:46;;;;;;;28.85;26.92;;;;;;;19.16;100.00;100801.69;5016379;28;20049;-82
2022/06/25 04:58:13;;;;;;;28.90;26.80;;;;;;;19.21;100.00;100802.53;5025989;28;20037;-82
2022/06/25 05:00:43;;;;;;;27.60;25.90;;;;;;;19.44;100.00;100813.91;5034828;28;20056;-81
2022/06/25 05:03:10;;;;;;;35.65;33.40;;;;;;;19.63;100.00;100809.69;5036333;28;20041;-81
2022/06/25 05:05:38;;;;;;;33.05;30.75;;;;;;;19.83;100.00;100803.59;5040437;28;20049;-82
2022/06/25 05:08:05;;;;;;;33.72;31.50;;;;;;;19.99;100.00;100807.13;5030093;28;20057;-81
2022/06/25 05:10:39;;;;;;;29.98;28.10;;;;;;;19.99;100.00;100807.13;5036254;28;20115;-81
2022/06/25 05:13:15;;;;;;;29.02;27.13;;;;;;;20.21;100.00;100820.41;5034034;28;20060;-84
2022/06/25 05:15:44;;;;;;;29.40;27.63;;;;;;;20.32;100.00;100818.50;5031005;28;20049;-81
2022/06/25 05:18:13;;;;;;;28.40;26.52;;;;;;;20.34;100.00;100811.78;5032732;28;20045;-83
2022/06/25 05:20:43;;;;;;;28.00;26.35;;;;;;;20.51;100.00;100805.28;5035162;28;20050;-80
2022/06/25 05:23:12;;;;;;;27.38;25.77;;;;;;;20.48;100.00;100808.53;5028766;28;20045;-81
2022/06/25 05:25:40;;;;;;;28.25;26.35;;;;;;;20.75;100.00;100805.59;5034418;28;20045;-81
2022/06/25 05:28:07;;;;;;;32.15;30.23;;;;;;;20.81;100.00;100799.09;5024713;28;20050;-82
2022/06/25 05:30:43;;;;;;;30.48;28.58;;;;;;;21.01;100.00;100811.78;5032433;28;20053;-84
2022/06/25 05:33:10;;;;;;;29.77;27.90;;;;;;;21.12;100.00;100810.66;5031444;28;20052;-82
2022/06/25 05:35:37;;;;;;;30.38;27.95;;;;;;;21.43;100.00;100811.41;5025856;28;20120;-82
2022/06/25 05:38:10;;;;;;;30.70;28.27;;;;;;;21.59;100.00;100806.75;5027642;28;20068;-81
2022/06/25 05:40:37;;;;;;;30.40;28.45;;;;;;;21.67;100.00;100802.66;5029256;28;20403;-82
2022/06/25 05:43:05;;;;;;;30.17;27.63;;;;;;;22.24;100.00;100805.84;5033055;28;20057;-82
2022/06/25 05:45:32;;;;;;;30.98;28.42;;;;;;;22.04;100.00;100807.59;5029343;28;20064;-81
2022/06/25 05:48:00;;;;;;;31.80;29.00;;;;;;;22.12;100.00;100807.00;5033945;28;20045;-83
2022/06/25 05:50:27;;;;;;;28.02;25.95;;;;;;;22.25;100.00;100815.59;5027360;28;20049;-81
2022/06/25 05:52:55;;;;;;;28.42;26.30;;;;;;;22.38;100.00;100813.03;5022246;28;20041;-82
2022/06/25 05:55:24;;;;;;;29.63;27.35;;;;;;;22.59;100.00;100815.59;5033888;28;20133;-82
2022/06/25 05:57:54;;;;;;;27.08;25.17;;;;;;;22.70;100.00;100814.41;5036376;28;20464;-80
2022/06/25 06:00:21;;;;;;;28.35;26.52;;;;;;;22.76;100.00;100809.78;5035121;28;20111;-80
2022/06/25 06:02:48;;;;;;;26.25;24.65;;;;;;;22.94;100.00;100814.50;5040251;28;20470;-81
2022/06/25 06:05:24;;;;;;;28.08;26.02;;;;;;;23.27;100.00;100810.09;5031033;28;20053;-83
2022/06/25 06:07:51;;;;;;;27.27;25.35;;;;;;;23.48;100.00;100813.34;5037503;28;20046;-80
2022/06/25 06:10:20;;;;;;;26.15;24.08;;;;;;;23.53;100.00;100815.19;5026440;28;20405;-82
2022/06/25 06:13:06;;;;;;;26.00;24.30;;;;;;;23.63;100.00;100806.94;5033276;28;20056;-82
2022/06/25 06:15:33;;;;;;;27.45;25.65;;;;;;;23.82;100.00;100804.28;5039971;28;20053;-80
2022/06/25 06:18:01;;;;;;;26.23;24.33;;;;;;;23.94;100.00;100807.34;5033050;28;20057;-81
2022/06/25 06:20:27;;;;;;;25.48;23.83;;;;;;;23.94;100.00;100801.94;5024208;28;20049;-81
2022/06/25 06:22:56;;;;;;;39.58;36.78;;;;;;;24.09;100.00;100803.59;5017383;28;20108;-83
2022/06/25 06:25:25;;;;;;;25.55;23.55;;;;;;;24.26;100.00;100796.84;5018913;28;20049;-83
2022/06/25 06:27:53;;;;;;;26.63;24.52;;;;;;;24.50;100.00;100802.97;5028508;28;20057;-81
2022/06/25 06:30:22;;;;;;;25.80;23.95;;;;;;;24.72;100.00;100798.81;5028227;28;20446;-83
2022/06/25 06:32:49;;;;;;;26.77;24.23;;;;;;;24.97;100.00;100798.34;5029630;28;20057;-83
2022/06/25 06:35:18;;;;;;;27.40;25.50;;;;;;;25.21;100.00;100798.19;5033254;28;20053;-82
2022/06/25 06:37:45;;;;;;;26.00;24.33;;;;;;;25.49;100.00;100798.19;5018553;28;20053;-83
2022/06/25 06:40:12;;;;;;;26.85;24.48;;;;;;;25.73;100.00;100795.22;5038159;28;20049;-83
2022/06/25 06:42:39;;;;;;;26.92;24.90;;;;;;;26.02;100.00;100795.66;5032773;28;20053;-83
2022/06/25 06:45:07;;;;;;;24.02;22.08;;;;;;;26.14;100.00;100789.66;5031271;28;20052;-83
2022/06/25 06:47:37;;;;;;;26.85;24.55;;;;;;;26.10;97.73;100802.28;5027292;28;20493;-83
2022/06/25 06:50:05;;;;;;;26.00;24.00;;;;;;;26.13;100.00;100790.78;5033153;28;20433;-87
2022/06/25 06:52:32;;;;;;;28.05;25.75;;;;;;;26.07;92.23;100794.72;5030315;28;20064;-83
2022/06/25 06:55:01;;;;;;;26.35;24.20;;;;;;;26.05;92.21;100788.78;5027826;28;20056;-82
2022/06/25 06:57:28;;;;;;;26.30;24.20;;;;;;;26.49;97.30;100790.75;5027995;28;20455;-82
2022/06/25 06:59:55;;;;;;;26.33;24.63;;;;;;;26.50;96.39;100788.81;5024691;28;20045;-82
2022/06/25 07:02:23;;;;;;;27.48;25.65;;;;;;;26.67;100.00;100778.03;5027069;28;20049;-81
2022/06/25 07:04:52;;;;;;;36.78;28.80;;;;;;;26.97;100.00;100781.06;5031549;28;20132;-80
2022/06/25 07:07:18;;;;;;;26.73;24.70;;;;;;;26.53;95.21;100776.50;5028415;28;20045;-82
2022/06/25 07:09:45;;;;;;;28.48;26.20;;;;;;;26.68;89.07;100779.63;5022486;28;20429;-82
2022/06/25 07:12:13;;;;;;;54.83;49.83;;;;;;;26.59;86.00;100780.69;5032734;28;20163;-82
2022/06/25 07:14:41;;;;;;;58.50;52.35;;;;;;;26.69;89.51;100778.53;5029323;28;20060;-81
2022/06/25 07:17:08;;;;;;;58.28;52.67;;;;;;;26.95;91.38;100778.63;5029157;28;20041;-81
2022/06/25 07:19:35;;;;;;;55.15;50.15;;;;;;;26.70;100.00;100774.66;5025376;28;20045;-81
2022/06/25 07:22:09;;;;;;;59.10;53.20;;;;;;;26.95;98.58;100780.56;5036281;28;20049;-81
2022/06/25 07:24:36;;;;;;;56.72;51.08;;;;;;;27.28;87.02;100775.56;5015878;28;20482;-82
2022/06/25 07:27:04;;;;;;;54.42;49.03;;;;;;;27.35;79.15;100781.38;5014171;28;20056;-82
2022/06/25 07:29:31;;;;;;;56.65;51.05;;;;;;;27.29;89.69;100790.00;5032745;28;20042;-83
2022/06/25 07:31:58;;;;;;;58.88;52.72;;;;;;;27.54;86.34;100788.47;5033070;28;20049;-81
2022/06/25 07:34:24;;;;;;;60.33;55.22;;;;;;;27.12;87.84;100783.34;5028060;28;20060;-82
2022/06/25 07:36:51;;;;;;;56.92;51.03;;;;;;;27.51;93.29;100786.38;5022517;28;20050;-81
2022/06/25 07:39:20;;;;;;;58.20;52.60;;;;;;;27.44;80.50;100784.09;5025475;28;20103;-82
2022/06/25 07:41:47;;;;;;;56.78;51.45;;;;;;;27.16;76.83;100781.63;5033790;28;20045;-82
2022/06/25 07:44:14;;;;;;;54.88;49.42;;;;;;;27.22;76.21;100779.56;5033392;28;20137;-81
2022/06/25 07:46:42;;;;;;;42.58;38.53;;;;;;;27.34;79.14;100787.13;5034092;28;20064;-81
2022/06/25 07:49:10;;;;;;;26.77;24.73;;;;;;;27.48;78.38;100781.56;5020307;28;20046;-81
2022/06/25 07:54:23;;;;;;;26.98;25.27;;;;;;;27.51;74.88;100786.38;5033344;28;20052;-83
2022/06/25 07:56:58;;;;;;;28.90;26.90;;;;;;;27.52;78.26;100780.59;5032489;28;20119;-82
2022/06/25 07:59:25;;;;;;;28.52;26.55;;;;;;;27.48;88.41;100779.63;5026710;28;20379;-82
2022/06/25 08:01:52;;;;;;;27.23;25.35;;;;;;;27.98;77.71;100771.00;5022301;28;20054;-81
2022/06/25 08:04:20;;;;;;;27.92;25.77;;;;;;;28.15;73.40;100767.47;5020187;28;20046;-80
2022/06/25 08:06:47;;;;;;;28.02;26.02;;;;;;;28.02;69.65;100765.69;5032304;28;20042;-83
2022/06/25 08:09:15;;;;;;;27.73;25.83;;;;;;;27.96;72.46;100767.81;5047514;28;20041;-82
2022/06/25 08:11:46;;;;;;;27.38;25.50;;;;;;;28.03;72.82;100767.31;5054375;28;20056;-82
2022/06/25 08:14:13;;;;;;;27.58;25.77;;;;;;;28.06;70.59;100772.94;5030439;28;20050;-83
2022/06/25 08:16:42;;;;;;;27.83;25.77;;;;;;;28.07;69.55;100773.72;5028024;28;20041;-81
2022/06/25 08:19:09;;;;;;;26.98;25.25;;;;;;;28.19;62.98;100773.88;5034194;28;20050;-81
2022/06/25 08:21:36;;;;;;;28.45;26.65;;;;;;;28.20;74.82;100764.59;5028290;28;20050;-81
2022/06/25 08:24:06;;;;;;;28.30;26.60;;;;;;;28.30;78.75;100771.63;5023236;28;20398;-81
2022/06/25 08:26:32;;;;;;;28.65;26.50;;;;;;;28.85;72.25;100765.38;5020095;28;20050;-80
2022/06/25 08:29:01;;;;;;;29.55;27.50;;;;;;;28.79;64.53;100763.16;5020511;28;20053;-79
2022/06/25 08:31:29;;;;;;;28.38;26.38;;;;;;;28.81;66.68;100764.44;5031387;28;20053;-81
2022/06/25 08:34:05;;;;;;;31.60;29.45;;;;;;;29.21;70.26;100759.44;5035580;28;20058;-82
2022/06/25 08:36:39;;;;;;;33.10;30.90;;;;;;;29.15;63.70;100760.75;5022496;28;20050;-80
2022/06/25 08:39:09;;;;;;;32.53;30.42;;;;;;;28.95;63.64;100765.00;4993856;28;20551;-82
2022/06/25 08:41:39;;;;;;;30.98;28.92;;;;;;;28.90;66.55;100773.41;4988200;28;20047;-82
2022/06/25 08:44:08;;;;;;;28.88;27.05;;;;;;;29.03;62.25;100766.13;4991363;28;20050;-81
2022/06/25 08:46:36;;;;;;;29.30;27.08;;;;;;;28.96;65.27;100774.03;4991769;28;20074;-81
2022/06/25 08:49:04;;;;;;;35.00;32.67;;;;;;;28.99;63.72;100767.91;4992531;28;20047;-84
2022/06/25 08:51:33;;;;;;;32.03;29.92;;;;;;;28.98;60.78;100774.47;4994877;28;20065;-82
2022/06/25 08:54:03;;;;;;;29.42;27.42;;;;;;;29.25;67.54;100769.72;4992518;28;20058;-81
2022/06/25 08:56:30;;;;;;;30.02;28.23;;;;;;;29.44;60.95;100775.53;4983741;28;20065;-81
2022/06/25 08:58:57;;;;;;;29.95;27.88;;;;;;;29.25;58.63;100767.78;4987837;28;20051;-81
2022/06/25 09:01:28;;;;;;;28.85;26.88;;;;;;;29.15;58.44;100768.16;4994283;28;20049;-85
2022/06/25 09:03:58;;;;;;;27.13;25.07;;;;;;;29.49;55.94;100767.16;4993036;28;20054;-83
2022/06/25 09:06:27;;;;;;;27.48;25.33;;;;;;;28.82;62.47;100774.25;4983411;28;20060;-83
2022/06/25 09:09:16;;;;;;;27.80;25.33;;;;;;;29.39;59.59;100775.75;4984937;28;20108;-82
2022/06/25 09:11:52;;;;;;;31.23;28.48;;;;;;;30.06;63.25;100773.97;4990260;28;20050;-80
2022/06/25 09:14:27;;;;;;;30.13;28.13;;;;;;;29.73;65.22;100773.94;4990527;28;20518;-81
2022/06/25 09:17:00;;;;;;;30.63;28.48;;;;;;;29.87;63.12;100769.00;4992373;28;20055;-81
2022/06/25 09:19:32;;;;;;;29.98;28.17;;;;;;;28.94;60.15;100770.81;4988086;28;20467;-81
2022/06/25 09:21:59;;;;;;;;;;;;;;;28.60;60.63;100767.09;4993402;28;20069;-82
2022/06/25 09:24:49;;;;;;;31.08;29.23;;;;;;;28.85;59.38;100768.13;5001177;28;20369;-82
2022/06/25 09:27:36;;;;;;;30.13;28.13;;;;;;;29.11;56.96;100765.31;4978011;28;20471;-83
2022/06/25 09:30:13;;;;;;;30.98;29.02;;;;;;;28.96;60.44;100755.69;4979698;28;20088;-81
2022/06/25 09:32:46;;;;;;;31.30;29.08;;;;;;;29.41;61.48;100757.06;4978595;28;20125;-82
2022/06/25 09:35:29;;;;;;;29.15;27.15;;;;;;;30.03;64.10;100750.00;4998752;28;20479;-82
2022/06/25 09:38:01;;;;;;;29.05;27.25;;;;;;;29.74;70.60;100756.38;5009550;28;20061;-83
2022/06/25 09:40:28;;;;;;;;;;;;;;;30.45;59.83;100753.47;5025986;28;20041;-82
2022/06/25 09:42:56;;;;;;;31.30;29.30;;;;;;;29.58;64.51;100759.69;5025775;28;20364;-83
2022/06/25 09:45:23;;;;;;;33.08;30.88;;;;;;;29.39;69.04;100757.41;5031408;28;20042;-83
2022/06/25 09:47:51;;;;;;;33.47;31.05;;;;;;;30.40;58.33;100748.19;5031285;28;20049;-82
2022/06/25 09:50:19;;;;;;;31.48;29.00;;;;;;;30.65;67.02;100750.97;5027199;28;20037;-82
2022/06/25 09:52:54;;;;;;;35.25;32.63;;;;;;;30.33;59.09;100750.69;5026691;28;20045;-82
2022/06/25 09:55:24;;;;;;;33.55;31.08;;;;;;;30.44;63.02;100746.41;5030452;28;20052;-82
2022/06/25 09:57:51;;;;;;;32.58;30.67;;;;;;;29.75;63.16;100752.50;5023426;28;20046;-82
2022/06/25 10:00:19;;;;;;;30.50;28.50;;;;;;;30.35;53.27;100748.44;5025770;28;20057;-82
2022/06/25 10:02:48;;;;;;;30.35;28.20;;;;;;;30.51;58.42;100749.38;5030654;28;20088;-83
2022/06/25 10:05:18;;;;;;;33.28;30.35;;;;;;;30.59;55.45;100742.16;5029857;28;20037;-82
2022/06/25 10:08:07;;;;;;;29.90;27.80;;;;;;;29.87;61.03;100745.16;5023131;28;20132;-83
2022/06/25 10:10:39;;;;;;;33.47;30.75;;;;;;;30.47;54.96;100747.63;5034708;28;20116;-82
2022/06/25 10:13:07;;;;;;;32.22;30.13;;;;;;;30.65;57.53;100743.53;5033514;28;20049;-82
2022/06/25 10:15:37;;;;;;;30.85;28.75;;;;;;;31.11;54.37;100740.75;5037160;28;20049;-82
2022/06/25 10:18:06;;;;;;;30.38;28.17;;;;;;;31.27;52.81;100750.66;5022163;28;20073;-82
2022/06/25 10:20:35;;;;;;;31.70;29.35;;;;;;;29.53;62.85;100751.66;5033222;28;20045;-83
2022/06/25 10:23:05;;;;;;;31.70;29.17;;;;;;;30.78;58.73;100747.16;5030312;28;20167;-81
2022/06/25 10:25:33;;;;;;;31.77;29.75;;;;;;;31.11;55.23;100747.03;5027648;28;20050;-83
2022/06/25 10:28:08;;;;;;;31.92;29.55;;;;;;;31.89;57.80;100745.00;5023311;28;20050;-82
2022/06/25 10:30:39;;;;;;;30.90;28.77;;;;;;;31.69;59.23;100746.81;5027536;28;20059;-83
2022/06/25 10:33:06;;;;;;;33.10;30.70;;;;;;;31.58;50.88;100743.75;5023502;28;20072;-83
2022/06/25 10:35:36;;;;;;;32.78;30.58;;;;;;;30.13;59.72;100750.38;5028282;28;20067;-82
2022/06/25 10:38:06;;;;;;;32.13;29.92;;;;;;;30.37;48.95;100740.66;5030533;28;20053;-83
2022/06/25 10:40:35;;;;;;;32.35;30.05;;;;;;;29.97;52.79;100746.66;5019702;28;20180;-82
2022/06/25 10:43:02;;;;;;;33.72;31.52;;;;;;;30.73;51.04;100741.84;5025937;28;20052;-82
2022/06/25 10:45:56;;;;;;;30.63;28.13;;;;;;;30.78;50.58;100731.50;5031668;28;20543;-82
2022/06/25 10:48:23;;;;;;;32.92;30.50;;;;;;;31.43;52.88;100734.31;5025920;28;20049;-81
2022/06/25 10:50:55;;;;;;;32.40;30.10;;;;;;;31.31;48.93;100733.50;5024295;28;20065;-81
2022/06/25 10:53:27;;;;;;;31.45;29.35;;;;;;;30.20;56.21;100735.31;5024375;28;20053;-82
2022/06/25 10:56:16;;;;;;;31.42;29.35;;;;;;;30.76;56.47;100743.91;5026846;28;20470;-81
2022/06/25 10:58:47;;;;;;;33.85;31.40;;;;;;;30.72;51.71;100732.03;5025540;28;20144;-81
2022/06/25 11:01:35;;;;;;;32.70;30.30;;;;;;;30.67;54.92;100738.53;5027990;28;20140;-81
2022/06/25 11:04:06;;;;;;;34.75;32.20;;;;;;;30.44;58.88;100742.84;5020104;28;20046;-83
2022/06/25 11:06:40;;;;;;;35.17;32.55;;;;;;;31.42;52.76;100737.41;5026262;28;20054;-81
2022/06/25 11:09:15;;;;;;;32.65;30.70;;;;;;;31.40;62.46;100734.19;5030124;28;20409;-82
2022/06/25 11:11:44;;;;;;;31.95;29.85;;;;;;;32.54;52.38;100725.59;5024644;28;20056;-84
2022/06/25 11:14:21;;;;;;;32.97;30.45;;;;;;;32.34;55.84;100735.66;5024919;28;20053;-82
2022/06/25 11:16:48;;;;;;;32.95;30.10;;;;;;;31.90;48.03;100735.69;5026382;28;20081;-83
2022/06/25 11:19:15;;;;;;;30.80;28.65;;;;;;;31.48;50.82;100733.28;5031434;28;20042;-83
2022/06/25 11:21:46;;;;;;;32.55;29.70;;;;;;;31.72;55.90;100729.66;5024713;28;20521;-83
2022/06/25 11:24:16;;;;;;;30.30;27.58;;;;;;;30.98;50.90;100727.03;5023074;28;20502;-82
2022/06/25 11:29:33;;;;;;;33.15;30.52;;;;;;;31.33;52.47;100715.56;5006615;28;20493;-83
2022/06/25 11:32:00;;;;;;;37.78;34.47;;;;;;;30.99;52.74;100722.38;5023964;28;20042;-83
2022/06/25 11:34:30;;;;;;;38.90;36.13;;;;;;;30.92;53.91;100722.13;5027260;28;20402;-84
2022/06/25 11:37:01;;;;;;;35.95;33.10;;;;;;;31.34;54.53;100722.66;5028425;28;20057;-84
2022/06/25 11:39:29;;;;;;;32.30;30.08;;;;;;;31.21;51.23;100719.13;5031786;28;20433;-84
2022/06/25 11:42:09;;;;;;;31.13;28.38;;;;;;;31.05;53.32;100717.44;5037833;28;20144;-83
2022/06/25 11:44:45;;;;;;;32.53;29.85;;;;;;;31.48;51.43;100728.59;5042043;28;20095;-82